Jackson, MN

03:22 CDT 24. Srpen 2016 (GMT -0500)
Jackson Municipal | | Change Station

Výška 1447 ft 43.65 °N, 94.99 °W | Updated 11 minutes ago

Mostly Cloudy
Skoro zataženo
70 °F
Pocit jako 70 °F
S
8
Vítr proměnlivý Vítr od JZ

Dnes
Vysoké -- | Nízké -- °F
--% Možnost srážek
Včera
Vysoké -- | Nízké -- °F
Precip. -- inčů
Tlak 29.85 inčů
Viditelnost 10.0 mílí
Zataženo Polojasno 3500 ft
Polojasno 4600 ft
Skoro zataženo 5000 ft
Rosný bod 66 °F
Vlhkost 88%
Dešťové srážky 0.00 inčů
Sněhová pokrývka Není k dispozici
6:35 AM 8:08 PM
Ubývající měsíc, 59% visible
METAR KMJQ 240811Z AUTO 22007KT 10SM SCT035 SCT046 BKN050 21/19 A2985 RMK AO2
Tlak 29.85 inčů
Viditelnost 10.0 mílí
Zataženo Polojasno 3500 ft
Polojasno 4600 ft
Skoro zataženo 5000 ft
Rosný bod 66 °F
Vlhkost 88%
Dešťové srážky 0.00 inčů
Sněhová pokrývka Není k dispozici
6:35 AM 8:08 PM
Ubývající měsíc, 59% visible
METAR KMJQ 240811Z AUTO 22007KT 10SM SCT035 SCT046 BKN050 21/19 A2985 RMK AO2

10-Day Weather Forecast

Almanac

Astronomie

Aug. 24, 2016 Východ Západ
Skutečný čas
Občanský soumrak
Námořní soumrak
Astronomický soumrak
Měsíc
Délka denního světla
Délka dne
Tomorrow will be .
, % of the Moon is Illuminated

Dnešní extrémy

State Highs State Lows

Community

WunderPhotos

Upload Photos

1,934,560 snímků staženo!

WunderBlog® & News

Nearby

Kvalita ovzduší

  Kvalita ovzduší Index kvality ovzduší Polutant
Not available.

Výška sněhu

Station Hloubka Nadmořská výška

Seizmická činnost

Město Distance Mag. Čas & datum
Minimální zobrazený rozsah je 2.5.

Pobřežní teplota vody

Lokalita Teplota

Stations

Poblíž povětrnostní stanice

Lokace stanice Tepl. Ochlazování větrem Rosný bod Vlhkost Vítr Precip. Výška Čas hlášení Typ
                   

Watches & Warnings

There are currently no watches in effect.